sensor_id;sensor_type;location;lat;lon;timestamp;temperature;humidity
44229;DHT22;29904;51.058;5.378;2023-04-25T00:00:03;7.00;99.90
44229;DHT22;29904;51.058;5.378;2023-04-25T00:02:32;7.00;99.90
44229;DHT22;29904;51.058;5.378;2023-04-25T00:05:02;7.00;99.90
44229;DHT22;29904;51.058;5.378;2023-04-25T00:07:30;7.10;99.90
44229;DHT22;29904;51.058;5.378;2023-04-25T00:09:56;7.10;99.90
44229;DHT22;29904;51.058;5.378;2023-04-25T00:12:22;7.10;99.90
44229;DHT22;29904;51.058;5.378;2023-04-25T00:14:48;7.10;99.90
44229;DHT22;29904;51.058;5.378;2023-04-25T00:17:15;7.20;99.90
44229;DHT22;29904;51.058;5.378;2023-04-25T00:19:42;7.20;99.90
44229;DHT22;29904;51.058;5.378;2023-04-25T00:22:12;7.20;99.90
44229;DHT22;29904;51.058;5.378;2023-04-25T00:24:38;7.30;99.90
44229;DHT22;29904;51.058;5.378;2023-04-25T00:27:04;7.30;99.90
44229;DHT22;29904;51.058;5.378;2023-04-25T00:29:30;7.40;99.90
44229;DHT22;29904;51.058;5.378;2023-04-25T00:31:55;7.40;99.90
44229;DHT22;29904;51.058;5.378;2023-04-25T00:34:21;7.40;99.90
44229;DHT22;29904;51.058;5.378;2023-04-25T00:36:49;7.40;99.90
44229;DHT22;29904;51.058;5.378;2023-04-25T00:39:15;7.40;99.90
44229;DHT22;29904;51.058;5.378;2023-04-25T00:41:40;7.40;99.90
44229;DHT22;29904;51.058;5.378;2023-04-25T00:44:09;7.40;99.90
44229;DHT22;29904;51.058;5.378;2023-04-25T00:46:37;7.30;99.90
44229;DHT22;29904;51.058;5.378;2023-04-25T00:49:03;7.40;99.90
44229;DHT22;29904;51.058;5.378;2023-04-25T00:51:30;7.30;99.90
44229;DHT22;29904;51.058;5.378;2023-04-25T00:53:58;7.30;99.90
44229;DHT22;29904;51.058;5.378;2023-04-25T00:56:24;7.30;99.90
44229;DHT22;29904;51.058;5.378;2023-04-25T00:58:53;7.30;99.90
44229;DHT22;29904;51.058;5.378;2023-04-25T01:01:24;7.30;99.90
44229;DHT22;29904;51.058;5.378;2023-04-25T01:03:50;7.30;99.90
44229;DHT22;29904;51.058;5.378;2023-04-25T01:06:16;7.30;99.90
44229;DHT22;29904;51.058;5.378;2023-04-25T01:08:44;7.30;99.90
44229;DHT22;29904;51.058;5.378;2023-04-25T01:11:10;7.20;99.90
44229;DHT22;29904;51.058;5.378;2023-04-25T01:13:36;7.30;99.90
44229;DHT22;29904;51.058;5.378;2023-04-25T01:16:04;7.30;99.90
44229;DHT22;29904;51.058;5.378;2023-04-25T01:18:30;7.30;99.90
44229;DHT22;29904;51.058;5.378;2023-04-25T01:21:02;7.40;99.90
44229;DHT22;29904;51.058;5.378;2023-04-25T01:23:33;7.30;99.90
44229;DHT22;29904;51.058;5.378;2023-04-25T01:25:59;7.20;99.90
44229;DHT22;29904;51.058;5.378;2023-04-25T01:28:26;7.20;99.90
44229;DHT22;29904;51.058;5.378;2023-04-25T01:30:52;7.30;99.90
44229;DHT22;29904;51.058;5.378;2023-04-25T01:33:20;7.20;99.90
44229;DHT22;29904;51.058;5.378;2023-04-25T01:35:46;7.20;99.90
44229;DHT22;29904;51.058;5.378;2023-04-25T01:38:14;7.10;99.90
44229;DHT22;29904;51.058;5.378;2023-04-25T01:40:42;7.10;99.90
44229;DHT22;29904;51.058;5.378;2023-04-25T01:43:10;7.00;99.90
44229;DHT22;29904;51.058;5.378;2023-04-25T01:45:38;6.90;99.90
44229;DHT22;29904;51.058;5.378;2023-04-25T01:48:13;6.90;99.90
44229;DHT22;29904;51.058;5.378;2023-04-25T01:50:40;6.90;99.90
44229;DHT22;29904;51.058;5.378;2023-04-25T01:53:06;6.80;99.90
44229;DHT22;29904;51.058;5.378;2023-04-25T01:55:32;6.80;99.90
44229;DHT22;29904;51.058;5.378;2023-04-25T01:57:58;6.80;99.90
44229;DHT22;29904;51.058;5.378;2023-04-25T02:00:26;6.80;99.90
44229;DHT22;29904;51.058;5.378;2023-04-25T02:02:51;6.70;99.90
44229;DHT22;29904;51.058;5.378;2023-04-25T02:05:19;6.70;99.90
44229;DHT22;29904;51.058;5.378;2023-04-25T02:07:45;6.70;99.90
44229;DHT22;29904;51.058;5.378;2023-04-25T02:10:16;6.80;99.90
44229;DHT22;29904;51.058;5.378;2023-04-25T02:12:41;6.80;99.90
44229;DHT22;29904;51.058;5.378;2023-04-25T02:15:07;6.80;99.90
44229;DHT22;29904;51.058;5.378;2023-04-25T02:17:33;6.80;99.90
44229;DHT22;29904;51.058;5.378;2023-04-25T02:19:59;6.90;99.90
44229;DHT22;29904;51.058;5.378;2023-04-25T02:22:27;7.00;99.90
44229;DHT22;29904;51.058;5.378;2023-04-25T02:24:55;7.00;99.90
44229;DHT22;29904;51.058;5.378;2023-04-25T02:27:21;6.90;99.90
44229;DHT22;29904;51.058;5.378;2023-04-25T02:29:47;7.00;99.90
44229;DHT22;29904;51.058;5.378;2023-04-25T02:32:12;7.00;99.90
44229;DHT22;29904;51.058;5.378;2023-04-25T02:34:38;7.00;99.90
44229;DHT22;29904;51.058;5.378;2023-04-25T02:37:04;7.00;99.90
44229;DHT22;29904;51.058;5.378;2023-04-25T02:39:30;7.00;99.90
44229;DHT22;29904;51.058;5.378;2023-04-25T02:41:56;7.00;99.90
44229;DHT22;29904;51.058;5.378;2023-04-25T02:44:23;7.00;99.90
44229;DHT22;29904;51.058;5.378;2023-04-25T02:46:49;7.00;99.90
44229;DHT22;29904;51.058;5.378;2023-04-25T02:49:15;7.00;99.90
44229;DHT22;29904;51.058;5.378;2023-04-25T02:51:41;6.90;99.90
44229;DHT22;29904;51.058;5.378;2023-04-25T02:54:07;6.90;99.90
44229;DHT22;29904;51.058;5.378;2023-04-25T02:56:33;7.00;99.90
44229;DHT22;29904;51.058;5.378;2023-04-25T02:58:58;6.90;99.90
44229;DHT22;29904;51.058;5.378;2023-04-25T03:01:24;7.00;99.90
44229;DHT22;29904;51.058;5.378;2023-04-25T03:03:50;6.90;99.90
44229;DHT22;29904;51.058;5.378;2023-04-25T03:06:16;6.90;99.90
44229;DHT22;29904;51.058;5.378;2023-04-25T03:08:42;6.90;99.90
44229;DHT22;29904;51.058;5.378;2023-04-25T03:11:08;6.90;99.90
44229;DHT22;29904;51.058;5.378;2023-04-25T03:13:34;6.90;99.90
44229;DHT22;29904;51.058;5.378;2023-04-25T03:16:01;6.90;99.90
44229;DHT22;29904;51.058;5.378;2023-04-25T03:18:27;6.90;99.90
44229;DHT22;29904;51.058;5.378;2023-04-25T03:20:53;6.90;99.90
44229;DHT22;29904;51.058;5.378;2023-04-25T03:23:20;6.80;99.90
44229;DHT22;29904;51.058;5.378;2023-04-25T03:25:48;6.80;99.90
44229;DHT22;29904;51.058;5.378;2023-04-25T03:28:14;6.80;99.90
44229;DHT22;29904;51.058;5.378;2023-04-25T03:30:41;6.80;99.90
44229;DHT22;29904;51.058;5.378;2023-04-25T03:33:07;6.80;99.90
44229;DHT22;29904;51.058;5.378;2023-04-25T03:35:33;6.80;99.90
44229;DHT22;29904;51.058;5.378;2023-04-25T03:38:00;6.80;99.90
44229;DHT22;29904;51.058;5.378;2023-04-25T03:40:26;6.80;99.90
44229;DHT22;29904;51.058;5.378;2023-04-25T03:42:52;6.80;99.90
44229;DHT22;29904;51.058;5.378;2023-04-25T03:45:19;6.80;99.90
44229;DHT22;29904;51.058;5.378;2023-04-25T03:47:45;6.70;99.90
44229;DHT22;29904;51.058;5.378;2023-04-25T03:50:11;6.60;99.90
44229;DHT22;29904;51.058;5.378;2023-04-25T03:52:37;5.90;99.90
44229;DHT22;29904;51.058;5.378;2023-04-25T03:55:03;6.50;99.90
44229;DHT22;29904;51.058;5.378;2023-04-25T03:57:30;6.60;99.90
44229;DHT22;29904;51.058;5.378;2023-04-25T03:59:58;6.60;99.90
44229;DHT22;29904;51.058;5.378;2023-04-25T04:02:23;6.50;99.90
44229;DHT22;29904;51.058;5.378;2023-04-25T04:04:49;6.50;99.90
44229;DHT22;29904;51.058;5.378;2023-04-25T04:07:15;6.50;99.90
44229;DHT22;29904;51.058;5.378;2023-04-25T04:09:40;6.60;99.90
44229;DHT22;29904;51.058;5.378;2023-04-25T04:12:06;6.50;99.90
44229;DHT22;29904;51.058;5.378;2023-04-25T04:14:32;6.60;99.90
44229;DHT22;29904;51.058;5.378;2023-04-25T04:16:58;6.60;99.90
44229;DHT22;29904;51.058;5.378;2023-04-25T04:19:25;6.70;99.90
44229;DHT22;29904;51.058;5.378;2023-04-25T04:21:51;6.70;99.90
44229;DHT22;29904;51.058;5.378;2023-04-25T04:24:16;6.70;99.90
44229;DHT22;29904;51.058;5.378;2023-04-25T04:26:42;6.70;99.90
44229;DHT22;29904;51.058;5.378;2023-04-25T04:29:12;6.70;99.90
44229;DHT22;29904;51.058;5.378;2023-04-25T04:31:47;6.80;99.90
44229;DHT22;29904;51.058;5.378;2023-04-25T04:34:13;6.80;99.90
44229;DHT22;29904;51.058;5.378;2023-04-25T04:36:38;6.80;99.90
44229;DHT22;29904;51.058;5.378;2023-04-25T04:39:06;6.70;99.90
44229;DHT22;29904;51.058;5.378;2023-04-25T04:41:31;6.80;99.90
44229;DHT22;29904;51.058;5.378;2023-04-25T04:43:57;6.70;99.90
44229;DHT22;29904;51.058;5.378;2023-04-25T04:46:23;6.70;99.90
44229;DHT22;29904;51.058;5.378;2023-04-25T04:48:52;6.80;99.90
44229;DHT22;29904;51.058;5.378;2023-04-25T04:51:18;6.80;99.90
44229;DHT22;29904;51.058;5.378;2023-04-25T04:53:44;6.90;99.90
44229;DHT22;29904;51.058;5.378;2023-04-25T04:56:12;7.00;99.90
44229;DHT22;29904;51.058;5.378;2023-04-25T04:58:38;7.00;99.90
44229;DHT22;29904;51.058;5.378;2023-04-25T05:01:03;7.00;99.90
44229;DHT22;29904;51.058;5.378;2023-04-25T05:03:29;7.10;99.90
44229;DHT22;29904;51.058;5.378;2023-04-25T05:05:55;7.00;99.90
44229;DHT22;29904;51.058;5.378;2023-04-25T05:08:21;7.00;99.90
44229;DHT22;29904;51.058;5.378;2023-04-25T05:10:46;7.00;99.90
44229;DHT22;29904;51.058;5.378;2023-04-25T05:13:12;7.00;99.90
44229;DHT22;29904;51.058;5.378;2023-04-25T05:15:38;7.10;99.90
44229;DHT22;29904;51.058;5.378;2023-04-25T05:18:03;7.10;99.90
44229;DHT22;29904;51.058;5.378;2023-04-25T05:20:29;7.10;99.90
44229;DHT22;29904;51.058;5.378;2023-04-25T05:22:55;7.10;99.90
44229;DHT22;29904;51.058;5.378;2023-04-25T05:25:21;7.10;99.90
44229;DHT22;29904;51.058;5.378;2023-04-25T05:27:47;7.20;99.90
44229;DHT22;29904;51.058;5.378;2023-04-25T05:30:13;7.30;99.90
44229;DHT22;29904;51.058;5.378;2023-04-25T05:32:38;7.30;99.90
44229;DHT22;29904;51.058;5.378;2023-04-25T05:35:04;7.30;99.90
44229;DHT22;29904;51.058;5.378;2023-04-25T05:37:32;7.30;99.90
44229;DHT22;29904;51.058;5.378;2023-04-25T05:39:58;7.40;99.90
44229;DHT22;29904;51.058;5.378;2023-04-25T05:42:24;7.40;99.90
44229;DHT22;29904;51.058;5.378;2023-04-25T05:44:49;7.50;99.90
44229;DHT22;29904;51.058;5.378;2023-04-25T05:47:15;7.50;99.90
44229;DHT22;29904;51.058;5.378;2023-04-25T05:49:42;7.60;99.90
44229;DHT22;29904;51.058;5.378;2023-04-25T05:52:08;7.70;99.90
44229;DHT22;29904;51.058;5.378;2023-04-25T05:54:34;7.70;99.90
44229;DHT22;29904;51.058;5.378;2023-04-25T05:57:00;7.80;99.90
44229;DHT22;29904;51.058;5.378;2023-04-25T05:59:26;7.90;99.90
44229;DHT22;29904;51.058;5.378;2023-04-25T06:01:52;7.90;99.90
44229;DHT22;29904;51.058;5.378;2023-04-25T06:04:18;8.00;99.90
44229;DHT22;29904;51.058;5.378;2023-04-25T06:06:44;8.10;99.90
44229;DHT22;29904;51.058;5.378;2023-04-25T06:09:09;8.10;99.90
44229;DHT22;29904;51.058;5.378;2023-04-25T06:11:37;8.20;99.90
44229;DHT22;29904;51.058;5.378;2023-04-25T06:14:05;8.20;99.90
44229;DHT22;29904;51.058;5.378;2023-04-25T06:16:31;8.30;99.90
44229;DHT22;29904;51.058;5.378;2023-04-25T06:18:57;8.50;99.90
44229;DHT22;29904;51.058;5.378;2023-04-25T06:21:23;8.50;99.90
44229;DHT22;29904;51.058;5.378;2023-04-25T06:23:49;8.30;99.90
44229;DHT22;29904;51.058;5.378;2023-04-25T06:26:14;8.40;99.90
44229;DHT22;29904;51.058;5.378;2023-04-25T06:28:42;8.50;99.90
44229;DHT22;29904;51.058;5.378;2023-04-25T06:31:08;8.50;99.90
44229;DHT22;29904;51.058;5.378;2023-04-25T06:33:33;8.60;99.90
44229;DHT22;29904;51.058;5.378;2023-04-25T06:35:59;8.70;99.90
44229;DHT22;29904;51.058;5.378;2023-04-25T06:38:27;8.80;99.90
44229;DHT22;29904;51.058;5.378;2023-04-25T06:40:53;8.80;99.90
44229;DHT22;29904;51.058;5.378;2023-04-25T06:43:18;8.90;99.90
44229;DHT22;29904;51.058;5.378;2023-04-25T06:45:46;8.90;99.90
44229;DHT22;29904;51.058;5.378;2023-04-25T06:48:12;8.80;99.90
44229;DHT22;29904;51.058;5.378;2023-04-25T06:50:38;8.80;99.90
44229;DHT22;29904;51.058;5.378;2023-04-25T06:53:05;8.80;99.90
44229;DHT22;29904;51.058;5.378;2023-04-25T06:55:31;8.70;99.90
44229;DHT22;29904;51.058;5.378;2023-04-25T06:57:57;8.90;99.90
44229;DHT22;29904;51.058;5.378;2023-04-25T07:00:23;8.90;99.90
44229;DHT22;29904;51.058;5.378;2023-04-25T07:02:48;9.10;99.90
44229;DHT22;29904;51.058;5.378;2023-04-25T07:05:15;9.10;99.90
44229;DHT22;29904;51.058;5.378;2023-04-25T07:07:41;9.30;99.90
44229;DHT22;29904;51.058;5.378;2023-04-25T07:10:09;9.30;99.90
44229;DHT22;29904;51.058;5.378;2023-04-25T07:12:37;9.60;99.90
44229;DHT22;29904;51.058;5.378;2023-04-25T07:15:03;9.80;99.90
44229;DHT22;29904;51.058;5.378;2023-04-25T07:17:31;9.90;99.90
44229;DHT22;29904;51.058;5.378;2023-04-25T07:19:59;9.80;99.90
44229;DHT22;29904;51.058;5.378;2023-04-25T07:22:25;9.90;99.90
44229;DHT22;29904;51.058;5.378;2023-04-25T07:24:52;9.90;99.90
44229;DHT22;29904;51.058;5.378;2023-04-25T07:27:20;9.60;99.90
44229;DHT22;29904;51.058;5.378;2023-04-25T07:29:46;9.60;99.90
44229;DHT22;29904;51.058;5.378;2023-04-25T07:32:12;9.70;99.90
44229;DHT22;29904;51.058;5.378;2023-04-25T07:34:39;9.70;99.90
44229;DHT22;29904;51.058;5.378;2023-04-25T07:37:05;9.50;99.90
44229;DHT22;29904;51.058;5.378;2023-04-25T07:39:31;9.30;99.90
44229;DHT22;29904;51.058;5.378;2023-04-25T07:41:56;9.60;99.90
44229;DHT22;29904;51.058;5.378;2023-04-25T07:44:24;10.00;99.90
44229;DHT22;29904;51.058;5.378;2023-04-25T07:46:51;10.30;99.90
44229;DHT22;29904;51.058;5.378;2023-04-25T07:49:17;10.40;99.90
44229;DHT22;29904;51.058;5.378;2023-04-25T07:51:42;10.40;99.90
44229;DHT22;29904;51.058;5.378;2023-04-25T07:54:14;10.40;99.90
44229;DHT22;29904;51.058;5.378;2023-04-25T07:56:42;10.40;99.90
44229;DHT22;29904;51.058;5.378;2023-04-25T07:59:10;10.50;99.90
44229;DHT22;29904;51.058;5.378;2023-04-25T08:01:36;10.30;99.90
44229;DHT22;29904;51.058;5.378;2023-04-25T08:04:02;10.20;99.90
44229;DHT22;29904;51.058;5.378;2023-04-25T08:06:28;10.10;99.90
44229;DHT22;29904;51.058;5.378;2023-04-25T08:08:54;10.20;99.90
44229;DHT22;29904;51.058;5.378;2023-04-25T08:11:19;10.00;99.90
44229;DHT22;29904;51.058;5.378;2023-04-25T08:13:45;10.10;99.90
44229;DHT22;29904;51.058;5.378;2023-04-25T08:16:11;10.10;99.90
44229;DHT22;29904;51.058;5.378;2023-04-25T08:18:37;10.10;99.90
44229;DHT22;29904;51.058;5.378;2023-04-25T08:21:03;10.00;99.90
44229;DHT22;29904;51.058;5.378;2023-04-25T08:23:31;10.10;99.90
44229;DHT22;29904;51.058;5.378;2023-04-25T08:25:57;10.00;99.90
44229;DHT22;29904;51.058;5.378;2023-04-25T08:28:22;10.00;99.90
44229;DHT22;29904;51.058;5.378;2023-04-25T08:30:50;10.00;99.90
44229;DHT22;29904;51.058;5.378;2023-04-25T08:33:16;9.90;99.90
44229;DHT22;29904;51.058;5.378;2023-04-25T08:35:42;10.00;99.90
44229;DHT22;29904;51.058;5.378;2023-04-25T08:38:07;10.30;99.90
44229;DHT22;29904;51.058;5.378;2023-04-25T08:40:38;10.30;99.90
44229;DHT22;29904;51.058;5.378;2023-04-25T08:43:06;10.30;99.90
44229;DHT22;29904;51.058;5.378;2023-04-25T08:45:39;10.60;99.90
44229;DHT22;29904;51.058;5.378;2023-04-25T08:48:14;10.80;99.90
44229;DHT22;29904;51.058;5.378;2023-04-25T08:50:52;10.90;99.90
44229;DHT22;29904;51.058;5.378;2023-04-25T08:53:30;11.10;99.90
44229;DHT22;29904;51.058;5.378;2023-04-25T08:55:58;11.00;99.90
44229;DHT22;29904;51.058;5.378;2023-04-25T08:58:25;11.10;99.90
44229;DHT22;29904;51.058;5.378;2023-04-25T09:00:51;11.20;99.90
44229;DHT22;29904;51.058;5.378;2023-04-25T09:03:19;11.20;99.90
44229;DHT22;29904;51.058;5.378;2023-04-25T09:05:45;11.60;99.90
44229;DHT22;29904;51.058;5.378;2023-04-25T09:08:11;11.40;99.90
44229;DHT22;29904;51.058;5.378;2023-04-25T09:10:40;11.50;99.90
44229;DHT22;29904;51.058;5.378;2023-04-25T09:13:10;11.40;99.90
44229;DHT22;29904;51.058;5.378;2023-04-25T09:15:54;11.70;99.90
44229;DHT22;29904;51.058;5.378;2023-04-25T09:20:54;11.90;99.90
44229;DHT22;29904;51.058;5.378;2023-04-25T09:23:21;11.90;99.90
44229;DHT22;29904;51.058;5.378;2023-04-25T09:25:50;11.80;99.90
44229;DHT22;29904;51.058;5.378;2023-04-25T09:28:17;12.20;99.90
44229;DHT22;29904;51.058;5.378;2023-04-25T09:30:48;12.50;99.90
44229;DHT22;29904;51.058;5.378;2023-04-25T09:33:13;12.80;99.90
44229;DHT22;29904;51.058;5.378;2023-04-25T09:35:42;12.90;99.90
44229;DHT22;29904;51.058;5.378;2023-04-25T09:38:12;12.90;99.90
44229;DHT22;29904;51.058;5.378;2023-04-25T09:40:47;12.70;99.90
44229;DHT22;29904;51.058;5.378;2023-04-25T09:43:24;12.40;99.90
44229;DHT22;29904;51.058;5.378;2023-04-25T09:45:54;12.40;99.90
44229;DHT22;29904;51.058;5.378;2023-04-25T09:48:23;11.90;99.90
44229;DHT22;29904;51.058;5.378;2023-04-25T09:51:11;11.80;99.90
44229;DHT22;29904;51.058;5.378;2023-04-25T09:53:40;11.90;99.90
44229;DHT22;29904;51.058;5.378;2023-04-25T09:56:08;12.00;99.90
44229;DHT22;29904;51.058;5.378;2023-04-25T09:58:38;12.00;99.90
44229;DHT22;29904;51.058;5.378;2023-04-25T10:01:11;11.70;99.90
44229;DHT22;29904;51.058;5.378;2023-04-25T10:03:38;11.50;99.90
44229;DHT22;29904;51.058;5.378;2023-04-25T10:06:18;11.20;99.90
44229;DHT22;29904;51.058;5.378;2023-04-25T10:08:45;10.80;99.90
44229;DHT22;29904;51.058;5.378;2023-04-25T10:11:14;10.50;99.90
44229;DHT22;29904;51.058;5.378;2023-04-25T10:13:41;10.20;99.90
44229;DHT22;29904;51.058;5.378;2023-04-25T10:16:08;9.70;99.90
44229;DHT22;29904;51.058;5.378;2023-04-25T10:18:36;9.50;99.90
44229;DHT22;29904;51.058;5.378;2023-04-25T10:21:04;9.50;99.90
44229;DHT22;29904;51.058;5.378;2023-04-25T10:23:32;9.50;99.90
44229;DHT22;29904;51.058;5.378;2023-04-25T10:26:00;9.40;99.90
44229;DHT22;29904;51.058;5.378;2023-04-25T10:28:27;9.30;99.90
44229;DHT22;29904;51.058;5.378;2023-04-25T10:33:38;9.30;99.90
44229;DHT22;29904;51.058;5.378;2023-04-25T10:36:13;9.30;99.90
44229;DHT22;29904;51.058;5.378;2023-04-25T10:38:39;9.30;99.90
44229;DHT22;29904;51.058;5.378;2023-04-25T10:41:07;9.40;99.90
44229;DHT22;29904;51.058;5.378;2023-04-25T10:43:45;9.40;99.90
44229;DHT22;29904;51.058;5.378;2023-04-25T10:46:37;9.50;99.90
44229;DHT22;29904;51.058;5.378;2023-04-25T10:49:03;9.70;99.90
44229;DHT22;29904;51.058;5.378;2023-04-25T10:51:31;10.00;99.90
44229;DHT22;29904;51.058;5.378;2023-04-25T10:54:08;10.10;99.90
44229;DHT22;29904;51.058;5.378;2023-04-25T10:56:39;9.90;99.90
44229;DHT22;29904;51.058;5.378;2023-04-25T11:01:43;10.20;99.90
44229;DHT22;29904;51.058;5.378;2023-04-25T11:04:29;10.60;99.90
44229;DHT22;29904;51.058;5.378;2023-04-25T11:09:52;11.20;99.90
44229;DHT22;29904;51.058;5.378;2023-04-25T11:12:18;11.50;99.90
44229;DHT22;29904;51.058;5.378;2023-04-25T11:14:43;11.70;99.90
44229;DHT22;29904;51.058;5.378;2023-04-25T11:17:10;12.00;99.90
44229;DHT22;29904;51.058;5.378;2023-04-25T11:19:36;12.20;99.90
44229;DHT22;29904;51.058;5.378;2023-04-25T11:22:03;12.50;99.90
44229;DHT22;29904;51.058;5.378;2023-04-25T11:24:33;12.80;99.90
44229;DHT22;29904;51.058;5.378;2023-04-25T11:27:05;13.10;99.90
44229;DHT22;29904;51.058;5.378;2023-04-25T11:29:34;13.70;99.90
44229;DHT22;29904;51.058;5.378;2023-04-25T11:32:00;14.20;99.90
44229;DHT22;29904;51.058;5.378;2023-04-25T11:34:30;14.50;99.90
44229;DHT22;29904;51.058;5.378;2023-04-25T11:36:58;14.60;99.90
44229;DHT22;29904;51.058;5.378;2023-04-25T11:39:26;14.60;99.90
44229;DHT22;29904;51.058;5.378;2023-04-25T11:41:52;14.80;99.90
44229;DHT22;29904;51.058;5.378;2023-04-25T11:44:21;14.90;99.90
44229;DHT22;29904;51.058;5.378;2023-04-25T11:46:47;14.40;99.90
44229;DHT22;29904;51.058;5.378;2023-04-25T11:49:16;13.60;99.90
44229;DHT22;29904;51.058;5.378;2023-04-25T11:51:45;13.50;99.90
44229;DHT22;29904;51.058;5.378;2023-04-25T11:54:12;13.60;99.90
44229;DHT22;29904;51.058;5.378;2023-04-25T11:56:41;13.70;99.90
44229;DHT22;29904;51.058;5.378;2023-04-25T11:59:07;13.70;99.90
44229;DHT22;29904;51.058;5.378;2023-04-25T12:01:35;13.50;99.90
44229;DHT22;29904;51.058;5.378;2023-04-25T12:04:16;13.10;99.90
44229;DHT22;29904;51.058;5.378;2023-04-25T12:06:44;12.80;99.90
44229;DHT22;29904;51.058;5.378;2023-04-25T12:09:13;12.30;99.90
44229;DHT22;29904;51.058;5.378;2023-04-25T12:11:46;11.50;99.90
44229;DHT22;29904;51.058;5.378;2023-04-25T12:14:12;11.10;99.90
44229;DHT22;29904;51.058;5.378;2023-04-25T12:16:48;10.80;99.90
44229;DHT22;29904;51.058;5.378;2023-04-25T12:19:15;10.80;99.90
44229;DHT22;29904;51.058;5.378;2023-04-25T12:21:41;10.60;99.90
44229;DHT22;29904;51.058;5.378;2023-04-25T12:24:14;10.30;99.90
44229;DHT22;29904;51.058;5.378;2023-04-25T12:29:20;10.20;99.90
44229;DHT22;29904;51.058;5.378;2023-04-25T12:31:46;10.30;99.90
44229;DHT22;29904;51.058;5.378;2023-04-25T12:34:14;10.50;99.90
44229;DHT22;29904;51.058;5.378;2023-04-25T12:36:40;10.60;99.90
44229;DHT22;29904;51.058;5.378;2023-04-25T12:39:06;10.80;99.90
44229;DHT22;29904;51.058;5.378;2023-04-25T12:41:34;11.00;99.90
44229;DHT22;29904;51.058;5.378;2023-04-25T12:44:00;11.40;99.90
44229;DHT22;29904;51.058;5.378;2023-04-25T12:46:26;11.70;99.90
44229;DHT22;29904;51.058;5.378;2023-04-25T12:48:51;11.80;99.90
44229;DHT22;29904;51.058;5.378;2023-04-25T12:51:18;12.00;99.90
44229;DHT22;29904;51.058;5.378;2023-04-25T12:53:44;12.20;99.90
44229;DHT22;29904;51.058;5.378;2023-04-25T12:56:10;12.60;99.90
44229;DHT22;29904;51.058;5.378;2023-04-25T12:58:36;12.90;99.90
44229;DHT22;29904;51.058;5.378;2023-04-25T13:01:01;13.10;99.90
44229;DHT22;29904;51.058;5.378;2023-04-25T13:03:29;12.80;99.90
44229;DHT22;29904;51.058;5.378;2023-04-25T13:05:55;12.60;99.90
44229;DHT22;29904;51.058;5.378;2023-04-25T13:08:21;12.80;99.90
44229;DHT22;29904;51.058;5.378;2023-04-25T13:10:50;12.90;99.90
44229;DHT22;29904;51.058;5.378;2023-04-25T13:13:15;13.10;99.90
44229;DHT22;29904;51.058;5.378;2023-04-25T13:15:42;13.50;99.90
44229;DHT22;29904;51.058;5.378;2023-04-25T13:18:08;14.00;99.90
44229;DHT22;29904;51.058;5.378;2023-04-25T13:20:33;14.10;99.90
44229;DHT22;29904;51.058;5.378;2023-04-25T13:23:01;13.90;99.90
44229;DHT22;29904;51.058;5.378;2023-04-25T13:25:27;13.70;99.90
44229;DHT22;29904;51.058;5.378;2023-04-25T13:27:52;13.90;99.90
44229;DHT22;29904;51.058;5.378;2023-04-25T13:30:18;14.30;99.90
44229;DHT22;29904;51.058;5.378;2023-04-25T13:32:44;13.80;99.90
44229;DHT22;29904;51.058;5.378;2023-04-25T13:35:12;13.30;99.90
44229;DHT22;29904;51.058;5.378;2023-04-25T13:37:38;13.30;99.90
44229;DHT22;29904;51.058;5.378;2023-04-25T13:40:07;12.90;99.90
44229;DHT22;29904;51.058;5.378;2023-04-25T13:42:37;12.70;99.90
44229;DHT22;29904;51.058;5.378;2023-04-25T13:45:03;12.70;99.90
44229;DHT22;29904;51.058;5.378;2023-04-25T13:47:28;12.60;99.90
44229;DHT22;29904;51.058;5.378;2023-04-25T13:49:54;12.50;99.90
44229;DHT22;29904;51.058;5.378;2023-04-25T13:52:20;12.60;99.90
44229;DHT22;29904;51.058;5.378;2023-04-25T13:54:46;13.00;99.90
44229;DHT22;29904;51.058;5.378;2023-04-25T13:57:14;13.20;99.90
44229;DHT22;29904;51.058;5.378;2023-04-25T13:59:42;13.30;99.90
44229;DHT22;29904;51.058;5.378;2023-04-25T14:02:08;13.10;99.90
44229;DHT22;29904;51.058;5.378;2023-04-25T14:04:33;13.10;99.90
44229;DHT22;29904;51.058;5.378;2023-04-25T14:06:59;13.30;99.90
44229;DHT22;29904;51.058;5.378;2023-04-25T14:09:25;13.70;99.90
44229;DHT22;29904;51.058;5.378;2023-04-25T14:11:53;13.90;99.90
44229;DHT22;29904;51.058;5.378;2023-04-25T14:14:19;13.80;99.90
44229;DHT22;29904;51.058;5.378;2023-04-25T14:16:45;13.90;99.90
44229;DHT22;29904;51.058;5.378;2023-04-25T14:19:14;14.10;99.90
44229;DHT22;29904;51.058;5.378;2023-04-25T14:21:42;14.30;99.90
44229;DHT22;29904;51.058;5.378;2023-04-25T14:24:10;14.00;99.90
44229;DHT22;29904;51.058;5.378;2023-04-25T14:26:38;13.60;99.90
44229;DHT22;29904;51.058;5.378;2023-04-25T14:29:07;13.10;99.90
44229;DHT22;29904;51.058;5.378;2023-04-25T14:31:33;12.90;99.90
44229;DHT22;29904;51.058;5.378;2023-04-25T14:33:59;12.50;99.90
44229;DHT22;29904;51.058;5.378;2023-04-25T14:36:26;12.40;99.90
44229;DHT22;29904;51.058;5.378;2023-04-25T14:38:56;12.00;99.90
44229;DHT22;29904;51.058;5.378;2023-04-25T14:41:22;11.90;99.90
44229;DHT22;29904;51.058;5.378;2023-04-25T14:43:48;12.00;99.90
44229;DHT22;29904;51.058;5.378;2023-04-25T14:46:14;12.00;99.90
44229;DHT22;29904;51.058;5.378;2023-04-25T14:48:40;11.90;99.90
44229;DHT22;29904;51.058;5.378;2023-04-25T14:51:06;11.90;99.90
44229;DHT22;29904;51.058;5.378;2023-04-25T14:53:32;12.10;99.90
44229;DHT22;29904;51.058;5.378;2023-04-25T14:55:58;12.20;99.90
44229;DHT22;29904;51.058;5.378;2023-04-25T14:58:24;12.40;99.90
44229;DHT22;29904;51.058;5.378;2023-04-25T15:00:50;12.90;99.90
44229;DHT22;29904;51.058;5.378;2023-04-25T15:03:17;13.30;99.90
44229;DHT22;29904;51.058;5.378;2023-04-25T15:05:44;13.50;99.90
44229;DHT22;29904;51.058;5.378;2023-04-25T15:08:10;13.60;99.90
44229;DHT22;29904;51.058;5.378;2023-04-25T15:10:36;13.40;99.90
44229;DHT22;29904;51.058;5.378;2023-04-25T15:13:03;13.10;99.90
44229;DHT22;29904;51.058;5.378;2023-04-25T15:15:29;12.90;99.90
44229;DHT22;29904;51.058;5.378;2023-04-25T15:17:56;12.70;99.90
44229;DHT22;29904;51.058;5.378;2023-04-25T15:20:24;12.30;99.90
44229;DHT22;29904;51.058;5.378;2023-04-25T15:22:50;12.10;99.90
44229;DHT22;29904;51.058;5.378;2023-04-25T15:25:16;12.00;99.90
44229;DHT22;29904;51.058;5.378;2023-04-25T15:27:45;12.00;99.90
44229;DHT22;29904;51.058;5.378;2023-04-25T15:30:15;12.00;99.90
44229;DHT22;29904;51.058;5.378;2023-04-25T15:32:42;12.00;99.90
44229;DHT22;29904;51.058;5.378;2023-04-25T15:35:08;12.00;99.90
44229;DHT22;29904;51.058;5.378;2023-04-25T15:37:35;12.00;99.90
44229;DHT22;29904;51.058;5.378;2023-04-25T15:40:17;12.00;99.90
44229;DHT22;29904;51.058;5.378;2023-04-25T15:42:48;12.00;99.90
44229;DHT22;29904;51.058;5.378;2023-04-25T15:45:23;12.40;99.90
44229;DHT22;29904;51.058;5.378;2023-04-25T15:47:55;12.50;99.90
44229;DHT22;29904;51.058;5.378;2023-04-25T15:50:21;12.60;99.90
44229;DHT22;29904;51.058;5.378;2023-04-25T15:52:50;12.70;99.90